Time;durP1;ratioP1;P1;durP2;ratioP2;P2;SDS_P1;SDS_P2;PMS_P1;PMS_P2;Temp;Humidity;BMP_temperature;BMP_pressure;BME280_temperature;BME280_humidity;BME280_pressure;Samples;Min_cycle;Max_cycle;Signal;HPM_P1;HPM_P2
2022/10/01 00:10:21;;;;;;;132.80;65.20;;;;;;;8.95;99.08;100183.16;657155;1278;141208;-86
2022/10/01 00:25:24;;;;;;;138.00;64.90;;;;;;;9.00;99.14;100182.34;657077;1277;141144;-86
2022/10/01 00:40:27;;;;;;;109.60;53.80;;;;;;;9.02;99.75;100173.30;658266;1278;140657;-87
2022/10/01 00:55:35;;;;;;;111.70;52.40;;;;;;;8.97;99.94;100164.52;657982;1278;140951;-85
2022/10/01 01:11:10;;;;;;;107.20;52.80;;;;;;;8.88;100.00;100153.70;658588;1278;140693;-86
2022/10/01 01:26:23;;;;;;;76.50;37.90;;;;;;;8.95;100.00;100156.82;657870;1279;139836;-86
2022/10/01 01:41:31;;;;;;;75.90;40.70;;;;;;;8.94;100.00;100146.60;658831;1278;140496;-84
2022/10/01 01:56:34;;;;;;;83.30;42.00;;;;;;;8.74;100.00;100150.21;657049;1279;141097;-87
2022/10/01 02:11:49;;;;;;;91.00;44.20;;;;;;;8.51;100.00;100152.23;657198;1277;140482;-88
2022/10/01 02:26:55;;;;;;;64.70;35.40;;;;;;;8.26;100.00;100148.81;658198;1277;140209;-86
2022/10/01 02:42:01;;;;;;;64.70;31.90;;;;;;;8.09;100.00;100155.70;658430;1277;140354;-86
2022/10/01 02:57:22;;;;;;;46.90;29.20;;;;;;;8.05;100.00;100162.95;659052;1277;141159;-85
2022/10/01 03:12:26;;;;;;;38.90;22.70;;;;;;;8.09;100.00;100160.06;657657;1277;139945;-86
2022/10/01 03:27:29;;;;;;;48.00;24.80;;;;;;;8.00;100.00;100136.90;658744;1277;141450;-87
2022/10/01 03:42:32;;;;;;;44.70;23.30;;;;;;;8.05;100.00;100125.69;659060;1277;141239;-85
2022/10/01 03:57:35;;;;;;;48.40;27.00;;;;;;;7.77;100.00;100109.60;658633;1278;141151;-85
2022/10/01 04:12:38;;;;;;;54.00;28.20;;;;;;;7.82;100.00;100096.17;658443;1278;140743;-85
2022/10/01 04:28:02;;;;;;;91.50;45.30;;;;;;;7.76;100.00;100082.90;658751;1278;139940;-87
2022/10/01 04:43:08;;;;;;;65.50;32.00;;;;;;;7.63;100.00;100067.38;659072;1277;140852;-85
2022/10/01 04:58:11;;;;;;;59.80;29.90;;;;;;;7.76;100.00;100059.41;659431;1277;140091;-84
2022/10/01 05:13:15;;;;;;;64.40;31.80;;;;;;;7.41;100.00;100084.08;659413;1277;140311;-85
2022/10/01 05:28:18;;;;;;;61.10;31.60;;;;;;;7.42;100.00;100091.77;658404;1277;140802;-84
2022/10/01 05:43:25;;;;;;;59.60;30.40;;;;;;;7.62;100.00;100092.52;658019;1277;1104870;-85
2022/10/01 05:58:29;;;;;;;62.40;33.40;;;;;;;7.80;100.00;100087.41;658779;1277;139904;-85
2022/10/01 06:13:34;;;;;;;113.70;52.50;;;;;;;8.06;100.00;100093.10;659109;1277;140520;-85
2022/10/01 06:28:37;;;;;;;78.10;41.10;;;;;;;8.97;100.00;100093.48;658405;1277;141180;-85
2022/10/01 06:43:40;;;;;;;48.90;29.00;;;;;;;10.55;100.00;100075.19;661172;1277;139852;-85
2022/10/01 06:58:43;;;;;;;34.70;21.30;;;;;;;11.90;100.00;100081.98;658905;1277;140715;-86
2022/10/01 07:13:46;;;;;;;26.80;18.50;;;;;;;13.05;100.00;100078.48;658697;1277;140642;-86
2022/10/01 07:28:56;;;;;;;24.40;17.50;;;;;;;13.74;100.00;100063.48;660139;1277;141320;-86
2022/10/01 07:44:00;;;;;;;32.30;22.90;;;;;;;14.31;98.41;100045.20;659575;1277;140546;-86
2022/10/01 07:59:04;;;;;;;23.90;16.00;;;;;;;15.05;94.43;100034.51;658240;1277;140078;-87
2022/10/01 08:14:07;;;;;;;17.50;13.30;;;;;;;15.48;87.82;100019.69;660405;1277;141526;-86
2022/10/01 08:29:10;;;;;;;21.40;15.50;;;;;;;15.37;83.48;100001.40;660019;1277;141221;-86
2022/10/01 08:44:26;;;;;;;22.60;15.20;;;;;;;15.91;82.36;99991.23;661459;1277;141013;-85
2022/10/01 09:00:01;;;;;;;14.90;12.20;;;;;;;16.67;78.52;99974.61;659976;1277;140749;-85
2022/10/01 09:15:24;;;;;;;17.10;11.90;;;;;;;16.96;76.25;99958.10;661366;1277;139784;-85
2022/10/01 09:30:28;;;;;;;19.00;13.00;;;;;;;17.44;73.68;99940.36;661444;1277;140625;-84
2022/10/01 09:45:33;;;;;;;12.30;8.90;;;;;;;17.75;69.54;99915.40;663936;1275;140439;-84
2022/10/01 10:00:39;;;;;;;12.90;7.80;;;;;;;18.60;66.00;99891.38;660593;1277;139665;-85
2022/10/01 10:15:51;;;;;;;10.50;7.50;;;;;;;19.27;63.74;99868.08;660735;1277;140180;-84
2022/10/01 10:40:42;;;;;;;11.00;7.30;;;;;;;19.65;60.23;99841.85;641371;1313;1173137;-85
2022/10/01 10:56:01;;;;;;;10.80;8.40;;;;;;;19.81;58.66;99816.31;653113;1289;139755;-84
2022/10/01 11:11:13;;;;;;;11.80;8.30;;;;;;;20.14;58.99;99807.02;651998;1289;139739;-85
2022/10/01 11:27:00;;;;;;;11.90;8.60;;;;;;;19.95;58.18;99790.44;653731;1289;138025;-85
2022/10/01 11:42:12;;;;;;;9.70;7.40;;;;;;;19.53;59.67;99762.30;654215;1289;139833;-85
2022/10/01 12:12:47;;;;;;;10.80;7.10;;;;;;;18.05;63.90;99729.77;653150;1289;139277;-83
2022/10/01 12:28:08;;;;;;;12.90;9.00;;;;;;;18.13;65.04;99722.17;650911;1289;142760;-84
2022/10/01 12:43:13;;;;;;;13.20;9.40;;;;;;;18.03;65.87;99702.45;653243;1288;139817;-82
2022/10/01 12:58:37;;;;;;;14.10;9.70;;;;;;;17.87;66.34;99683.88;653421;1289;139509;-84
2022/10/01 13:13:41;;;;;;;12.20;9.70;;;;;;;17.88;67.54;99670.34;652829;1289;139079;-82
2022/10/01 13:29:05;;;;;;;14.40;9.40;;;;;;;18.36;67.53;99654.23;652386;1287;139146;-82
2022/10/01 13:44:10;;;;;;;12.90;8.60;;;;;;;23.09;59.79;99629.23;653002;1289;139563;-83
2022/10/01 13:59:42;;;;;;;13.80;8.20;;;;;;;21.72;56.99;99620.69;653353;1288;139949;-83
2022/10/01 14:30:23;;;;;;;35.40;22.50;;;;;;;19.45;62.31;99573.08;661480;1281;139476;-83
2022/10/01 14:45:28;;;;;;;9.40;7.00;;;;;;;17.82;66.52;99556.55;657288;1281;139372;-82
2022/10/01 15:00:33;;;;;;;11.00;7.50;;;;;;;17.06;69.15;99547.54;657142;1281;139075;-82
2022/10/01 15:15:40;;;;;;;12.50;7.40;;;;;;;16.51;71.86;99525.63;660431;1281;139481;-84
2022/10/01 15:30:44;;;;;;;58.90;37.90;;;;;;;16.13;73.34;99503.34;654831;1281;140456;-82
2022/10/01 15:46:19;;;;;;;14.30;9.30;;;;;;;15.81;75.30;99492.08;655980;1281;141569;-82
2022/10/01 16:01:26;;;;;;;24.90;12.40;;;;;;;15.52;78.10;99479.98;664245;1281;140413;-83
2022/10/01 16:16:31;;;;;;;18.10;10.10;;;;;;;15.31;80.00;99478.15;655555;1281;141024;-84
2022/10/01 16:31:37;;;;;;;62.20;41.80;;;;;;;15.13;82.21;99464.92;655620;1281;141036;-85
2022/10/01 16:46:40;;;;;;;35.40;21.80;;;;;;;15.00;82.92;99445.59;655779;1281;141253;-81
2022/10/01 17:01:44;;;;;;;34.50;22.90;;;;;;;14.82;84.23;99436.70;655228;1281;140758;-83
2022/10/01 17:16:49;;;;;;;208.90;112.60;;;;;;;14.70;85.26;99426.27;657354;1280;140818;-83
2022/10/01 17:31:53;;;;;;;39.70;21.30;;;;;;;14.63;86.73;99413.25;655060;1281;140440;-84
2022/10/01 17:46:57;;;;;;;44.80;22.70;;;;;;;14.45;88.99;99411.25;655997;1281;140290;-84
2022/10/01 18:02:01;;;;;;;43.20;23.30;;;;;;;14.38;89.52;99396.05;655238;1282;140413;-82
2022/10/01 18:17:25;;;;;;;40.20;24.10;;;;;;;14.30;91.21;99390.17;655916;1280;140226;-83
2022/10/01 18:32:38;;;;;;;25.80;17.00;;;;;;;14.21;92.91;99382.61;656397;1280;140393;-84
2022/10/01 18:48:17;;;;;;;35.10;20.50;;;;;;;14.13;94.06;99370.59;657193;1281;140595;-83
2022/10/01 19:03:39;;;;;;;29.70;17.00;;;;;;;14.05;96.47;99362.77;657660;1280;141344;-84
2022/10/01 19:19:01;;;;;;;38.60;20.20;;;;;;;13.96;98.87;99353.27;658568;1280;140939;-83
2022/10/01 19:34:16;;;;;;;29.50;17.50;;;;;;;13.79;100.00;99373.02;658422;1283;139607;-87
2022/10/01 19:49:26;;;;;;;22.30;12.20;;;;;;;13.32;100.00;99389.44;659547;1280;139485;-87
2022/10/01 20:04:44;;;;;;;61.00;30.50;;;;;;;13.10;100.00;99374.85;659279;1280;142180;-88
2022/10/01 20:19:57;;;;;;;9.10;5.80;;;;;;;12.78;100.00;99371.11;662626;1281;139743;-91
2022/10/01 20:35:15;;;;;;;10.50;6.10;;;;;;;12.69;100.00;99359.39;658131;1281;139478;-87
2022/10/01 20:50:24;;;;;;;15.50;8.60;;;;;;;12.43;100.00;99361.48;657487;1280;140399;-90
2022/10/01 21:05:38;;;;;;;9.70;6.30;;;;;;;12.36;100.00;99364.10;656416;1281;140103;-89
2022/10/01 21:21:05;;;;;;;17.70;10.40;;;;;;;12.20;100.00;99368.36;657445;1277;143711;-90
2022/10/01 21:36:21;;;;;;;13.80;8.00;;;;;;;12.19;100.00;99366.84;658036;1277;141427;-88
2022/10/01 21:51:44;;;;;;;23.20;10.80;;;;;;;12.27;100.00;99363.34;658848;1276;140436;-90
2022/10/01 22:07:13;;;;;;;14.40;10.50;;;;;;;12.28;100.00;99366.06;658309;1277;140015;-89
2022/10/01 22:22:37;;;;;;;16.90;10.70;;;;;;;12.28;100.00;99370.11;658594;1277;140624;-91
2022/10/01 22:37:58;;;;;;;21.70;13.10;;;;;;;12.14;100.00;99371.91;659069;1277;140414;-91
2022/10/01 22:53:17;;;;;;;18.30;11.90;;;;;;;12.23;100.00;99365.27;657495;1277;1293150;-90
2022/10/01 23:08:39;;;;;;;23.50;15.40;;;;;;;12.28;100.00;99364.35;658496;1277;140668;-89
2022/10/01 23:23:54;;;;;;;25.50;16.90;;;;;;;12.36;100.00;99376.23;658466;1277;142751;-90
2022/10/01 23:39:00;;;;;;;24.80;16.90;;;;;;;12.45;100.00;99387.75;658461;1276;139622;-89
2022/10/01 23:54:10;;;;;;;28.80;18.30;;;;;;;12.47;100.00;99395.50;658484;1277;140568;-90
